createdAt,value
2018-07-21T00:01:49.138Z,15.87
2018-07-21T00:04:20.860Z,11.30
2018-07-21T00:06:52.217Z,11.00
2018-07-21T00:09:23.626Z,11.07
2018-07-21T00:11:54.620Z,11.37
2018-07-21T00:14:26.256Z,11.90
2018-07-21T00:16:57.607Z,11.17
2018-07-21T00:19:29.344Z,10.77
2018-07-21T00:22:01.020Z,15.50
2018-07-21T00:24:32.649Z,11.23
2018-07-21T00:27:15.802Z,8.93
2018-07-21T00:29:46.826Z,9.53
2018-07-21T00:32:18.393Z,11.27
2018-07-21T00:34:49.031Z,13.80
2018-07-21T00:37:22.043Z,10.73
2018-07-21T00:39:53.427Z,16.43
2018-07-21T00:42:25.251Z,12.70
2018-07-21T00:44:57.518Z,11.90
2018-07-21T00:47:31.316Z,11.23
2018-07-21T00:50:03.417Z,9.10
2018-07-21T00:52:36.549Z,10.90
2018-07-21T00:55:07.987Z,13.90
2018-07-21T00:57:41.893Z,13.63
2018-07-21T01:00:13.652Z,8.93
2018-07-21T01:02:45.436Z,9.40
2018-07-21T01:05:16.838Z,12.07
2018-07-21T01:07:48.128Z,10.13
2018-07-21T01:10:19.674Z,10.23
2018-07-21T01:12:51.008Z,11.33
2018-07-21T01:15:23.677Z,8.63
2018-07-21T01:17:55.325Z,11.80
2018-07-21T01:20:26.490Z,10.07
2018-07-21T01:22:58.630Z,10.30
2018-07-21T01:25:29.965Z,12.83
2018-07-21T01:28:03.877Z,10.63
2018-07-21T01:30:35.303Z,9.67
2018-07-21T01:33:08.560Z,8.90
2018-07-21T01:35:41.891Z,16.13
2018-07-21T01:38:12.116Z,10.67
2018-07-21T01:40:44.363Z,10.17
2018-07-21T01:43:15.308Z,8.07
2018-07-21T01:45:47.506Z,8.83
2018-07-21T01:48:20.200Z,7.57
2018-07-21T01:50:55.960Z,8.60
2018-07-21T01:53:27.684Z,8.47
2018-07-21T01:55:59.071Z,10.57
2018-07-21T01:58:31.108Z,8.20
2018-07-21T02:01:02.935Z,10.03
2018-07-21T02:03:34.655Z,9.80
2018-07-21T02:06:06.062Z,7.57
2018-07-21T02:08:38.862Z,8.63
2018-07-21T02:11:09.798Z,7.47
2018-07-21T02:13:42.012Z,8.73
2018-07-21T02:16:13.495Z,10.57
2018-07-21T02:18:45.096Z,9.93
2018-07-21T02:21:16.212Z,10.67
2018-07-21T02:23:48.068Z,9.83
2018-07-21T02:26:19.654Z,9.27
2018-07-21T02:28:50.038Z,9.53
2018-07-21T02:31:22.332Z,9.73
2018-07-21T02:33:53.704Z,9.83
2018-07-21T02:36:25.318Z,8.70
2018-07-21T02:38:56.822Z,6.63
2018-07-21T02:41:27.936Z,9.33
2018-07-21T02:43:59.343Z,9.50
2018-07-21T02:46:30.685Z,10.90
2018-07-21T02:49:02.547Z,8.80
2018-07-21T02:51:35.192Z,8.43
2018-07-21T02:54:06.533Z,9.73
2018-07-21T02:56:38.935Z,9.00
2018-07-21T02:59:10.075Z,8.93
2018-07-21T03:01:41.783Z,8.30
2018-07-21T03:04:13.195Z,12.23
2018-07-21T03:06:44.388Z,10.93
2018-07-21T03:09:15.740Z,10.67
2018-07-21T03:11:46.872Z,10.07
2018-07-21T03:14:18.329Z,9.93
2018-07-21T03:16:49.836Z,8.37
2018-07-21T03:19:24.674Z,8.97
2018-07-21T03:21:56.210Z,10.97
2018-07-21T03:24:31.476Z,8.27
2018-07-21T03:27:02.637Z,9.97
2018-07-21T03:29:33.969Z,9.93
2018-07-21T03:32:05.387Z,8.30
2018-07-21T03:34:37.384Z,9.00
2018-07-21T03:37:08.514Z,10.17
2018-07-21T03:39:39.655Z,9.13
2018-07-21T03:42:11.416Z,10.67
2018-07-21T03:44:45.179Z,9.23
2018-07-21T03:47:16.469Z,10.53
2018-07-21T03:49:47.816Z,10.27
2018-07-21T03:52:21.098Z,7.83
2018-07-21T03:54:51.920Z,9.23
2018-07-21T03:57:23.815Z,11.10
2018-07-21T03:59:55.351Z,9.03
2018-07-21T04:02:26.595Z,10.10
2018-07-21T04:04:58.002Z,9.10
2018-07-21T04:07:30.611Z,8.93
2018-07-21T04:10:02.265Z,9.40
2018-07-21T04:12:33.559Z,9.33
2018-07-21T04:15:11.653Z,9.77
2018-07-21T04:17:42.759Z,11.80
2018-07-21T04:20:17.408Z,9.33
2018-07-21T04:22:48.364Z,9.93
2018-07-21T04:25:19.483Z,9.13
2018-07-21T04:27:50.610Z,14.00
2018-07-21T04:30:22.147Z,10.30
2018-07-21T04:32:55.655Z,13.80
2018-07-21T04:35:29.098Z,10.97
2018-07-21T04:38:01.987Z,11.13
2018-07-21T04:40:41.052Z,12.77
2018-07-21T04:43:15.745Z,10.27
2018-07-21T04:45:50.591Z,8.87
2018-07-21T04:48:25.323Z,10.83
2018-07-21T04:50:59.413Z,10.90
2018-07-21T04:53:35.701Z,10.73
2018-07-21T04:56:11.281Z,8.47
2018-07-21T04:58:43.687Z,9.83
2018-07-21T05:01:17.814Z,10.73
2018-07-21T05:03:52.472Z,9.57
2018-07-21T05:06:27.241Z,9.87
2018-07-21T05:09:05.881Z,8.10
2018-07-21T05:11:39.333Z,11.40
2018-07-21T05:14:10.754Z,9.47
2018-07-21T05:16:46.211Z,12.70
2018-07-21T05:19:20.246Z,15.87
2018-07-21T05:21:56.709Z,10.53
2018-07-21T05:24:32.206Z,13.47
2018-07-21T05:27:05.712Z,13.03
2018-07-21T05:29:41.083Z,14.87
2018-07-21T05:32:16.131Z,14.87
2018-07-21T05:34:50.284Z,20.63
2018-07-21T05:37:25.258Z,15.40
2018-07-21T05:40:01.354Z,15.10
2018-07-21T05:42:35.054Z,12.10
2018-07-21T05:45:12.400Z,12.97
2018-07-21T05:47:46.659Z,13.17
2018-07-21T05:50:17.456Z,13.97
2018-07-21T05:52:48.518Z,14.23
2018-07-21T05:55:19.223Z,15.87
2018-07-21T05:57:52.336Z,17.17
2018-07-21T06:00:23.312Z,19.43
2018-07-21T06:02:58.567Z,15.57
2018-07-21T06:05:31.051Z,13.60
2018-07-21T06:08:04.863Z,16.33
2018-07-21T06:10:35.911Z,16.40
2018-07-21T06:13:07.724Z,20.10
2018-07-21T06:15:38.478Z,15.27
2018-07-21T06:18:09.350Z,17.10
2018-07-21T06:20:45.417Z,17.93
2018-07-21T06:23:19.376Z,19.20
2018-07-21T06:25:51.165Z,23.73
2018-07-21T06:28:22.805Z,20.17
2018-07-21T06:30:54.922Z,19.53
2018-07-21T06:33:26.704Z,18.33
2018-07-21T06:35:57.752Z,20.87
2018-07-21T06:38:29.290Z,16.83
2018-07-21T06:40:59.632Z,22.07
2018-07-21T06:43:31.355Z,20.40
2018-07-21T06:46:02.047Z,17.73
2018-07-21T06:48:32.847Z,14.03
2018-07-21T06:51:04.892Z,16.63
2018-07-21T06:53:35.442Z,18.60
2018-07-21T06:56:06.022Z,17.23
2018-07-21T06:58:37.540Z,15.17
2018-07-21T07:01:08.212Z,18.43
2018-07-21T07:03:38.453Z,18.23
2018-07-21T07:06:08.509Z,14.10
2018-07-21T07:08:41.530Z,13.23
2018-07-21T07:11:11.597Z,16.37
2018-07-21T07:13:41.771Z,12.83
2018-07-21T07:16:11.770Z,13.97
2018-07-21T07:18:42.460Z,15.70
2018-07-21T07:21:12.119Z,13.90
2018-07-21T07:26:37.817Z,12.30
2018-07-21T07:29:07.351Z,12.60
2018-07-21T07:31:36.984Z,15.37
2018-07-21T07:34:07.133Z,17.03
2018-07-21T07:36:37.322Z,16.37
2018-07-21T07:39:10.907Z,13.30
2018-07-21T07:41:41.106Z,12.93
2018-07-21T07:44:11.565Z,16.10
2018-07-21T07:46:43.303Z,13.63
2018-07-21T07:49:14.387Z,15.20
2018-07-21T07:51:45.874Z,17.17
2018-07-21T07:54:17.033Z,11.90
2018-07-21T07:56:48.382Z,15.40
2018-07-21T07:59:19.455Z,19.33
2018-07-21T08:01:50.881Z,12.43
2018-07-21T08:04:22.875Z,13.87
2018-07-21T08:06:54.065Z,10.23
2018-07-21T08:09:24.812Z,13.67
2018-07-21T08:11:55.181Z,12.57
2018-07-21T08:14:27.158Z,11.57
2018-07-21T08:16:58.961Z,8.90
2018-07-21T08:19:30.451Z,13.13
2018-07-21T08:22:02.228Z,10.17
2018-07-21T08:24:35.011Z,11.63
2018-07-21T08:27:07.665Z,11.97
2018-07-21T08:29:39.203Z,10.97
2018-07-21T08:32:10.831Z,11.93
2018-07-21T08:34:42.953Z,13.13
2018-07-21T08:37:15.614Z,10.97
2018-07-21T08:39:49.342Z,8.53
2018-07-21T08:42:22.495Z,7.00
2018-07-21T08:44:54.894Z,7.10
2018-07-21T08:47:25.890Z,9.87
2018-07-21T08:49:56.693Z,10.47
2018-07-21T08:52:28.521Z,11.70
2018-07-21T08:55:00.297Z,9.00
2018-07-21T08:57:30.507Z,10.73
2018-07-21T09:00:01.424Z,6.13
2018-07-21T09:02:32.496Z,11.13
2018-07-21T09:05:04.361Z,10.83
2018-07-21T09:07:34.130Z,16.07
2018-07-21T09:10:05.561Z,12.33
2018-07-21T09:12:42.123Z,9.37
2018-07-21T09:18:09.464Z,11.17
2018-07-21T09:20:38.610Z,10.53
2018-07-21T09:23:09.602Z,12.97
2018-07-21T09:25:40.634Z,12.10
2018-07-21T09:28:17.071Z,14.33
2018-07-21T09:30:52.270Z,13.77
2018-07-21T09:33:22.872Z,16.47
2018-07-21T09:35:56.139Z,15.80
2018-07-21T09:38:27.383Z,13.70
2018-07-21T09:40:58.031Z,13.80
2018-07-21T09:43:29.290Z,18.17
2018-07-21T09:45:59.624Z,18.87
2018-07-21T09:48:31.196Z,15.77
2018-07-21T09:51:03.445Z,11.43
2018-07-21T09:53:36.514Z,10.08
2018-07-21T09:56:07.020Z,10.75
2018-07-21T09:58:36.521Z,6.85
2018-07-21T10:01:05.265Z,11.28
2018-07-21T10:03:36.176Z,9.13
2018-07-21T10:06:10.871Z,10.65
2018-07-21T10:08:40.925Z,9.38
2018-07-21T10:11:12.246Z,8.95
2018-07-21T10:13:45.593Z,9.30
2018-07-21T10:16:24.141Z,8.73
2018-07-21T10:18:57.247Z,12.50
2018-07-21T10:21:25.627Z,10.15
2018-07-21T10:23:59.638Z,9.65
2018-07-21T10:26:33.816Z,11.40
2018-07-21T10:29:08.784Z,11.55
2018-07-21T10:31:38.644Z,11.95
2018-07-21T10:34:10.427Z,7.53
2018-07-21T10:36:40.121Z,13.90
2018-07-21T10:39:13.457Z,13.68
2018-07-21T10:41:43.263Z,9.23
2018-07-21T10:44:16.726Z,9.28
2018-07-21T10:46:50.411Z,12.07
2018-07-21T10:49:19.935Z,10.18
2018-07-21T10:52:00.728Z,9.85
2018-07-21T10:54:29.668Z,10.75
2018-07-21T10:56:59.412Z,11.33
2018-07-21T10:59:28.360Z,8.00
2018-07-21T11:02:03.789Z,8.55
2018-07-21T11:04:33.409Z,9.28
2018-07-21T11:07:02.591Z,11.83
2018-07-21T11:09:31.467Z,8.30
2018-07-21T11:12:02.009Z,8.40
2018-07-21T11:14:31.273Z,10.93
2018-07-21T11:17:02.564Z,8.05
2018-07-21T11:19:31.997Z,8.95
2018-07-21T11:22:02.509Z,8.83
2018-07-21T11:24:31.615Z,10.93
2018-07-21T11:27:01.834Z,9.20
2018-07-21T11:29:34.972Z,11.90
2018-07-21T11:32:03.866Z,11.80
2018-07-21T11:34:32.736Z,13.15
2018-07-21T11:37:02.280Z,11.83
2018-07-21T11:39:31.061Z,10.90
2018-07-21T11:42:00.508Z,9.08
2018-07-21T11:44:29.257Z,10.75
2018-07-21T11:46:58.048Z,10.03
2018-07-21T11:49:27.702Z,10.50
2018-07-21T11:51:56.446Z,10.45
2018-07-21T11:54:25.160Z,9.40
2018-07-21T11:57:00.290Z,6.37
2018-07-21T11:59:31.493Z,6.87
2018-07-21T12:02:01.183Z,9.43
2018-07-21T12:04:31.040Z,10.08
2018-07-21T12:07:01.165Z,7.10
2018-07-21T12:09:30.609Z,7.70
2018-07-21T12:12:01.633Z,7.75
2018-07-21T12:14:30.633Z,7.92
2018-07-21T12:17:00.613Z,7.10
2018-07-21T12:19:29.571Z,7.05
2018-07-21T12:21:58.439Z,8.43
2018-07-21T12:24:32.956Z,9.58
2018-07-21T12:27:03.768Z,10.65
2018-07-21T12:29:33.264Z,8.10
2018-07-21T12:34:39.459Z,7.10
2018-07-21T12:37:08.565Z,9.10
2018-07-21T12:39:38.825Z,7.62
2018-07-21T12:42:09.301Z,9.55
2018-07-21T12:44:38.696Z,6.72
2018-07-21T12:47:09.104Z,6.97
2018-07-21T12:49:37.839Z,7.35
2018-07-21T12:52:08.558Z,8.78
2018-07-21T12:54:37.628Z,7.75
2018-07-21T12:57:08.882Z,7.35
2018-07-21T12:59:40.959Z,8.48
2018-07-21T13:02:10.367Z,9.33
2018-07-21T13:04:39.186Z,9.03
2018-07-21T13:07:09.093Z,8.03
2018-07-21T13:09:49.206Z,13.13
2018-07-21T13:12:18.745Z,9.33
2018-07-21T13:14:49.110Z,9.78
2018-07-21T13:17:23.205Z,8.33
2018-07-21T13:19:57.462Z,9.65
2018-07-21T13:22:27.046Z,6.22
2018-07-21T13:24:56.051Z,7.62
2018-07-21T13:27:24.863Z,6.92
2018-07-21T13:29:53.955Z,9.45
2018-07-21T13:32:23.774Z,9.98
2018-07-21T13:40:46.930Z,11.68
2018-07-21T13:43:18.502Z,7.92
2018-07-21T13:45:49.358Z,7.25
2018-07-21T13:48:19.638Z,10.03
2018-07-21T13:50:53.862Z,8.45
2018-07-21T13:53:25.593Z,8.73
2018-07-21T13:56:19.811Z,11.78
2018-07-21T13:58:52.325Z,10.72
2018-07-21T14:01:22.249Z,9.73
2018-07-21T14:03:53.156Z,8.28
2018-07-21T14:06:25.077Z,7.70
2018-07-21T14:08:56.287Z,8.80
2018-07-21T14:11:26.660Z,8.03
2018-07-21T14:13:57.445Z,6.53
2018-07-21T14:16:28.313Z,8.53
2018-07-21T14:18:58.739Z,7.03
2018-07-21T14:21:29.877Z,8.03
2018-07-21T14:24:01.220Z,9.18
2018-07-21T14:26:31.409Z,9.00
2018-07-21T14:29:06.553Z,11.08
2018-07-21T14:31:37.577Z,7.95
2018-07-21T14:34:09.035Z,7.25
2018-07-21T14:36:41.397Z,7.10
2018-07-21T14:39:14.011Z,7.83
2018-07-21T14:41:47.103Z,11.08
2018-07-21T14:44:26.875Z,9.05
2018-07-21T14:46:58.307Z,9.73
2018-07-21T14:49:35.430Z,8.90
2018-07-21T14:52:08.217Z,8.80
2018-07-21T14:54:44.888Z,13.05
2018-07-21T14:57:45.520Z,8.10
2018-07-21T15:00:21.433Z,9.53
2018-07-21T15:02:53.558Z,10.90
2018-07-21T15:05:24.594Z,7.80
2018-07-21T15:07:59.233Z,8.98
2018-07-21T15:10:30.873Z,10.30
2018-07-21T15:13:03.436Z,9.93
2018-07-21T15:15:36.587Z,8.35
2018-07-21T15:18:08.973Z,9.43
2018-07-21T15:20:39.049Z,9.13
2018-07-21T15:26:03.097Z,8.33
2018-07-21T15:28:36.746Z,5.97
2018-07-21T15:31:11.070Z,6.40
2018-07-21T15:33:44.426Z,8.50
2018-07-21T15:36:17.061Z,7.80
2018-07-21T15:38:49.017Z,7.37
2018-07-21T15:41:22.087Z,5.83
2018-07-21T15:43:53.631Z,9.35
2018-07-21T15:46:25.226Z,6.67
2018-07-21T15:48:55.057Z,6.03
2018-07-21T15:51:25.476Z,7.83
2018-07-21T15:53:56.217Z,6.47
2018-07-21T15:56:25.988Z,10.88
2018-07-21T15:58:58.115Z,5.67
2018-07-21T16:01:28.651Z,9.00
2018-07-21T16:03:57.610Z,7.97
2018-07-21T16:06:26.689Z,6.75
2018-07-21T16:08:58.412Z,8.18
2018-07-21T16:11:29.604Z,7.80
2018-07-21T16:14:00.730Z,6.70
2018-07-21T16:16:31.372Z,5.75
2018-07-21T16:19:01.944Z,6.65
2018-07-21T16:21:32.678Z,9.35
2018-07-21T16:24:10.461Z,7.83
2018-07-21T16:26:50.066Z,8.70
2018-07-21T16:29:19.482Z,6.30
2018-07-21T16:31:54.931Z,6.05
2018-07-21T16:34:27.575Z,7.33
2018-07-21T16:36:59.380Z,9.78
2018-07-21T16:39:29.436Z,10.10
2018-07-21T16:41:59.881Z,8.95
2018-07-21T16:44:31.583Z,11.03
2018-07-21T16:47:02.182Z,6.80
2018-07-21T16:49:33.478Z,7.50
2018-07-21T16:52:04.353Z,8.33
2018-07-21T16:54:33.391Z,9.05
2018-07-21T16:57:16.016Z,6.97
2018-07-21T16:59:46.063Z,10.15
2018-07-21T17:02:22.966Z,10.78
2018-07-21T17:04:52.978Z,11.88
2018-07-21T17:07:23.704Z,10.55
2018-07-21T17:09:53.507Z,11.90
2018-07-21T17:12:28.817Z,14.30
2018-07-21T17:14:59.077Z,12.40
2018-07-21T17:17:29.736Z,9.48
2018-07-21T17:20:02.779Z,8.90
2018-07-21T17:23:43.204Z,9.30
2018-07-21T17:26:17.529Z,7.80
2018-07-21T17:28:47.895Z,9.13
2018-07-21T17:31:28.888Z,8.20
2018-07-21T17:33:58.907Z,10.67
2018-07-21T17:36:30.166Z,10.57
2018-07-21T17:39:03.717Z,9.57
2018-07-21T17:44:26.638Z,9.17
2018-07-21T17:46:59.305Z,11.07
2018-07-21T17:49:29.413Z,8.90
2018-07-21T17:52:00.791Z,9.17
2018-07-21T17:54:36.220Z,11.60
2018-07-21T17:57:05.109Z,9.87
2018-07-21T17:59:35.601Z,10.17
2018-07-21T18:02:05.594Z,11.90
2018-07-21T18:04:36.344Z,11.77
2018-07-21T18:07:06.582Z,12.10
2018-07-21T18:09:36.908Z,13.57
2018-07-21T18:12:13.247Z,14.00
2018-07-21T18:14:43.575Z,14.23
2018-07-21T18:17:13.335Z,13.50
2018-07-21T18:19:44.579Z,13.33
2018-07-21T18:22:13.497Z,14.63
2018-07-21T18:24:43.216Z,14.40
2018-07-21T18:27:14.930Z,13.50
2018-07-21T18:29:45.832Z,12.20
2018-07-21T18:32:16.918Z,12.13
2018-07-21T18:34:48.171Z,11.73
2018-07-21T18:37:17.099Z,10.97
2018-07-21T18:39:47.871Z,11.43
2018-07-21T18:42:16.163Z,10.13
2018-07-21T18:44:46.114Z,10.17
2018-07-21T18:47:15.967Z,10.07
2018-07-21T18:49:45.989Z,11.33
2018-07-21T18:52:16.580Z,9.37
2018-07-21T18:54:46.497Z,10.20
2018-07-21T18:57:16.893Z,14.00
2018-07-21T18:59:47.945Z,10.00
2018-07-21T19:02:18.133Z,10.97
2018-07-21T19:04:48.082Z,10.53
2018-07-21T19:07:20.703Z,9.20
2018-07-21T19:09:53.779Z,10.83
2018-07-21T19:12:29.561Z,9.57
2018-07-21T19:15:00.157Z,10.10
2018-07-21T19:17:31.203Z,12.57
2018-07-21T19:20:05.723Z,10.33
2018-07-21T19:22:36.282Z,9.07
2018-07-21T19:25:11.229Z,9.27
2018-07-21T19:27:42.577Z,8.73
2018-07-21T19:30:15.666Z,8.53
2018-07-21T19:32:55.723Z,10.03
2018-07-21T19:35:26.758Z,8.73
2018-07-21T19:37:58.374Z,9.57
2018-07-21T19:40:30.774Z,8.90
2018-07-21T19:43:01.739Z,8.80
2018-07-21T19:45:35.286Z,8.77
2018-07-21T19:48:06.630Z,12.07
2018-07-21T19:50:37.478Z,8.57
2018-07-21T19:53:06.974Z,9.57
2018-07-21T19:55:39.809Z,9.47
2018-07-21T19:58:09.267Z,11.30
2018-07-21T20:00:40.876Z,11.80
2018-07-21T20:03:10.253Z,11.40
2018-07-21T20:05:41.789Z,10.27
2018-07-21T20:08:12.296Z,11.63
2018-07-21T20:10:43.177Z,8.73
2018-07-21T20:13:13.690Z,9.10
2018-07-21T20:15:43.912Z,8.60
2018-07-21T20:18:13.554Z,12.70
2018-07-21T20:20:43.596Z,10.17
2018-07-21T20:23:12.362Z,12.93
2018-07-21T20:25:46.860Z,10.27
2018-07-21T20:28:17.458Z,8.13
2018-07-21T20:30:47.809Z,7.97
2018-07-21T20:33:16.613Z,8.83
2018-07-21T20:35:47.439Z,8.23
2018-07-21T20:38:17.435Z,8.77
2018-07-21T20:40:47.596Z,11.50
2018-07-21T20:43:17.797Z,9.97
2018-07-21T20:45:48.298Z,9.83
2018-07-21T20:48:18.270Z,11.00
2018-07-21T20:50:49.035Z,10.37
2018-07-21T20:53:19.608Z,10.70
2018-07-21T20:55:50.331Z,10.97
2018-07-21T20:58:20.919Z,11.07
2018-07-21T21:00:50.891Z,10.37
2018-07-21T21:03:20.753Z,11.07
2018-07-21T21:05:50.789Z,10.20
2018-07-21T21:08:29.724Z,10.07
2018-07-21T21:11:01.117Z,9.90
2018-07-21T21:13:31.887Z,9.90
2018-07-21T21:16:02.131Z,10.90
2018-07-21T21:18:33.086Z,10.23
2018-07-21T21:21:03.652Z,10.83
2018-07-21T21:23:37.110Z,11.30
2018-07-21T21:26:06.706Z,10.13
2018-07-21T21:28:37.093Z,11.10
2018-07-21T21:31:07.411Z,9.27
2018-07-21T21:33:37.620Z,9.57
2018-07-21T21:36:07.445Z,9.43
2018-07-21T21:38:37.207Z,9.37
2018-07-21T21:41:11.067Z,9.30
2018-07-21T21:43:42.053Z,16.73
2018-07-21T21:46:12.663Z,9.73
2018-07-21T21:48:44.256Z,12.50
2018-07-21T21:51:14.402Z,12.47
2018-07-21T21:53:46.959Z,8.37
2018-07-21T21:56:17.770Z,10.83
2018-07-21T21:58:47.612Z,17.23
2018-07-21T22:01:17.429Z,13.43
2018-07-21T22:03:47.561Z,14.37
2018-07-21T22:06:17.586Z,11.63
2018-07-21T22:08:47.785Z,11.93
2018-07-21T22:11:18.836Z,13.00
2018-07-21T22:13:48.850Z,11.93
2018-07-21T22:16:18.310Z,10.33
2018-07-21T22:18:48.514Z,12.10
2018-07-21T22:21:18.545Z,12.53
2018-07-21T22:23:48.442Z,13.27
2018-07-21T22:26:18.843Z,9.63
2018-07-21T22:28:48.581Z,11.67
2018-07-21T22:31:17.397Z,10.60
2018-07-21T22:33:47.414Z,9.83
2018-07-21T22:36:16.408Z,15.70
2018-07-21T22:38:46.832Z,13.87
2018-07-21T22:41:15.138Z,12.03
2018-07-21T22:43:46.341Z,9.63
2018-07-21T22:46:15.387Z,13.17
2018-07-21T22:48:44.288Z,14.30
2018-07-21T22:51:13.680Z,14.60
2018-07-21T22:53:43.153Z,14.03
2018-07-21T22:56:12.695Z,10.67
2018-07-21T22:58:44.851Z,12.30
2018-07-21T23:01:14.905Z,11.80
2018-07-21T23:03:45.014Z,10.53
2018-07-21T23:06:14.847Z,11.17
2018-07-21T23:08:44.816Z,11.70
2018-07-21T23:11:14.787Z,12.53
2018-07-21T23:13:44.564Z,13.87
2018-07-21T23:16:15.258Z,14.03
2018-07-21T23:18:44.632Z,12.77
2018-07-21T23:21:14.184Z,10.27
2018-07-21T23:23:44.106Z,14.87
2018-07-21T23:26:13.687Z,16.07
2018-07-21T23:28:43.169Z,14.83
2018-07-21T23:31:12.604Z,15.33
2018-07-21T23:33:43.340Z,14.23
2018-07-21T23:36:12.884Z,13.67
2018-07-21T23:38:42.842Z,12.43
2018-07-21T23:41:13.186Z,12.83
2018-07-21T23:43:44.622Z,12.47
2018-07-21T23:46:14.951Z,13.07
2018-07-21T23:48:45.280Z,12.30
2018-07-21T23:51:14.053Z,10.47
2018-07-21T23:53:44.381Z,11.40
2018-07-21T23:56:14.471Z,12.40
2018-07-21T23:58:45.650Z,12.00
